WZZ8911 LIMJ-EPWA
Flight info
| Callsign | WZZ8911 |
|---|---|
| Flight time | N/A |
| Altitude | 34000 |
| Route | GEN DCT MONEB DCT ROBAS DCT GIBLO DCT OSKOR DCT VESAL DCT MOBDO DCT LEDVA DCT NETIR DCT KOTEK DCT LOGDA |
| Aircraft | A321/M-SDE3FGHIRWY/LB1 |
Departure
| Time | 2026-05-07 17:19 |
|---|---|
| Airport | Genoa Cristoforo Colombo Airport (LIMJ) |
Arrival
| Time | N/A |
|---|---|
| Airport | Warsaw Chopin Airport (EPWA) |
| Time | Latitude | Longitude | Altitude | Speed | Heading |
|---|---|---|---|---|---|
| 2026-05-07 16:50 | 44.41376 | 8.85173 | 18 ft | 0 kts | 15° |
| 2026-05-07 17:08 | 44.41364 | 8.85169 | 19 ft | 2 kts | 8° |
| 2026-05-07 17:08 | 44.41348 | 8.85165 | 20 ft | 2 kts | 7° |
| 2026-05-07 17:09 | 44.41331 | 8.85165 | 19 ft | 2 kts | 346° |
| 2026-05-07 17:09 | 44.41316 | 8.85173 | 18 ft | 2 kts | 308° |
| 2026-05-07 17:09 | 44.41309 | 8.85190 | 18 ft | 1 kts | 286° |
| 2026-05-07 17:09 | 44.41308 | 8.85192 | 18 ft | 0 kts | 284° |
| 2026-05-07 17:12 | 44.41312 | 8.85174 | 20 ft | 5 kts | 284° |
| 2026-05-07 17:13 | 44.41324 | 8.85107 | 18 ft | 8 kts | 284° |
| 2026-05-07 17:13 | 44.41340 | 8.85025 | 18 ft | 9 kts | 284° |
| 2026-05-07 17:13 | 44.41357 | 8.84936 | 20 ft | 10 kts | 284° |
| 2026-05-07 17:13 | 44.41375 | 8.84838 | 18 ft | 11 kts | 284° |
| 2026-05-07 17:14 | 44.41394 | 8.84734 | 18 ft | 12 kts | 284° |
| 2026-05-07 17:14 | 44.41415 | 8.84622 | 18 ft | 12 kts | 281° |
| 2026-05-07 17:14 | 44.41377 | 8.84522 | 18 ft | 12 kts | 232° |
| 2026-05-07 17:14 | 44.41323 | 8.84426 | 19 ft | 12 kts | 232° |
| 2026-05-07 17:15 | 44.41326 | 8.84309 | 18 ft | 14 kts | 286° |
| 2026-05-07 17:15 | 44.41356 | 8.84148 | 18 ft | 21 kts | 285° |
| 2026-05-07 17:15 | 44.41396 | 8.83932 | 19 ft | 24 kts | 284° |
| 2026-05-07 17:15 | 44.41441 | 8.83708 | 19 ft | 24 kts | 287° |
| 2026-05-07 17:16 | 44.41485 | 8.83493 | 22 ft | 23 kts | 285° |
| 2026-05-07 17:16 | 44.41527 | 8.83283 | 24 ft | 22 kts | 285° |
| 2026-05-07 17:16 | 44.41567 | 8.83080 | 23 ft | 22 kts | 285° |
| 2026-05-07 17:16 | 44.41610 | 8.82860 | 20 ft | 24 kts | 285° |
| 2026-05-07 17:17 | 44.41653 | 8.82644 | 17 ft | 19 kts | 285° |
| 2026-05-07 17:17 | 44.41654 | 8.82532 | 17 ft | 9 kts | 231° |
| 2026-05-07 17:17 | 44.41590 | 8.82496 | 15 ft | 11 kts | 194° |
| 2026-05-07 17:17 | 44.41540 | 8.82480 | 15 ft | 3 kts | 185° |
| 2026-05-07 17:18 | 44.41531 | 8.82496 | 16 ft | 2 kts | 121° |
| 2026-05-07 17:18 | 44.41518 | 8.82551 | 17 ft | 18 kts | 107° |
| 2026-05-07 17:18 | 44.41417 | 8.83052 | 24 ft | 87 kts | 105° |
| 2026-05-07 17:18 | 44.41202 | 8.84153 | 24 ft | 145 kts | 105° |
| 2026-05-07 17:19 | 44.40914 | 8.85679 | 319 ft | 163 kts | 105° |
| 2026-05-07 17:19 | 44.40576 | 8.87164 | 1033 ft | 164 kts | 121° |
| 2026-05-07 17:19 | 44.39748 | 8.88317 | 1391 ft | 179 kts | 153° |
| 2026-05-07 17:19 | 44.38479 | 8.88591 | 1805 ft | 187 kts | 186° |
| 2026-05-07 17:20 | 44.37301 | 8.87888 | 2486 ft | 189 kts | 218° |
| 2026-05-07 17:20 | 44.36382 | 8.86536 | 3005 ft | 193 kts | 222° |
| 2026-05-07 17:20 | 44.35489 | 8.85140 | 3561 ft | 195 kts | 226° |
| 2026-05-07 17:20 | 44.34580 | 8.83720 | 4145 ft | 196 kts | 225° |
| 2026-05-07 17:21 | 44.33524 | 8.82547 | 4716 ft | 195 kts | 204° |
| 2026-05-07 17:21 | 44.32213 | 8.82097 | 5238 ft | 195 kts | 182° |
| 2026-05-07 17:21 | 44.30867 | 8.81999 | 5851 ft | 195 kts | 183° |
| 2026-05-07 17:21 | 44.29492 | 8.81872 | 6317 ft | 200 kts | 183° |
| 2026-05-07 17:22 | 44.28086 | 8.81746 | 6826 ft | 203 kts | 184° |
| 2026-05-07 17:22 | 44.26676 | 8.81625 | 7352 ft | 205 kts | 184° |
| 2026-05-07 17:22 | 44.25232 | 8.81506 | 7788 ft | 211 kts | 184° |
| 2026-05-07 17:22 | 44.23738 | 8.81430 | 8198 ft | 221 kts | 177° |
| 2026-05-07 17:23 | 44.22231 | 8.82157 | 8321 ft | 245 kts | 143° |
| 2026-05-07 17:23 | 44.21195 | 8.84164 | 8347 ft | 272 kts | 104° |
| 2026-05-07 17:23 | 44.21241 | 8.86831 | 8678 ft | 285 kts | 69° |
| 2026-05-07 17:23 | 44.22361 | 8.89104 | 9226 ft | 289 kts | 43° |
| 2026-05-07 17:24 | 44.23922 | 8.90875 | 9912 ft | 291 kts | 34° |
| 2026-05-07 17:24 | 44.25646 | 8.92460 | 10239 ft | 307 kts | 31° |
| 2026-05-07 17:24 | 44.27523 | 8.94073 | 10364 ft | 328 kts | 30° |
| 2026-05-07 17:24 | 44.29492 | 8.95778 | 10521 ft | 347 kts | 30° |
| 2026-05-07 17:25 | 44.31549 | 8.97630 | 10923 ft | 356 kts | 31° |
| 2026-05-07 17:25 | 44.33625 | 8.99568 | 11438 ft | 361 kts | 32° |
| 2026-05-07 17:25 | 44.35706 | 9.01569 | 11999 ft | 365 kts | 34° |
| 2026-05-07 17:25 | 44.37797 | 9.03616 | 12574 ft | 369 kts | 34° |
| 2026-05-07 17:26 | 44.39909 | 9.05698 | 13139 ft | 374 kts | 34° |
| 2026-05-07 17:26 | 44.42041 | 9.07803 | 13739 ft | 377 kts | 34° |
| 2026-05-07 17:26 | 44.44235 | 9.09857 | 14237 ft | 381 kts | 31° |
| 2026-05-07 17:26 | 44.46495 | 9.11798 | 14845 ft | 382 kts | 29° |
| 2026-05-07 17:27 | 44.48796 | 9.13676 | 15412 ft | 384 kts | 28° |
| 2026-05-07 17:27 | 44.51123 | 9.15543 | 15949 ft | 387 kts | 28° |
| 2026-05-07 17:27 | 44.53471 | 9.17431 | 16495 ft | 390 kts | 28° |
| 2026-05-07 17:27 | 44.55828 | 9.19347 | 17018 ft | 394 kts | 29° |
| 2026-05-07 17:28 | 44.58198 | 9.21302 | 17561 ft | 397 kts | 29° |
| 2026-05-07 17:28 | 44.60580 | 9.23290 | 18089 ft | 400 kts | 29° |
| 2026-05-07 17:28 | 44.62976 | 9.25300 | 18564 ft | 403 kts | 29° |
| 2026-05-07 17:28 | 44.65401 | 9.27331 | 19002 ft | 407 kts | 28° |
| 2026-05-07 17:29 | 44.67847 | 9.29370 | 19467 ft | 410 kts | 28° |
| 2026-05-07 17:29 | 44.70313 | 9.31417 | 19920 ft | 414 kts | 28° |
| 2026-05-07 17:29 | 44.72801 | 9.33482 | 20372 ft | 417 kts | 28° |
| 2026-05-07 17:29 | 44.75279 | 9.35538 | 20806 ft | 420 kts | 28° |
| 2026-05-07 17:30 | 44.77836 | 9.37665 | 21198 ft | 423 kts | 28° |
| 2026-05-07 17:30 | 44.80348 | 9.39762 | 21589 ft | 427 kts | 28° |
| 2026-05-07 17:30 | 44.82904 | 9.41903 | 22036 ft | 429 kts | 28° |
| 2026-05-07 17:30 | 44.85480 | 9.44061 | 22460 ft | 432 kts | 27° |
| 2026-05-07 17:31 | 44.88076 | 9.46232 | 22873 ft | 435 kts | 27° |
| 2026-05-07 17:31 | 44.90688 | 9.48419 | 23272 ft | 438 kts | 27° |
| 2026-05-07 17:31 | 44.93311 | 9.50620 | 23639 ft | 441 kts | 27° |
| 2026-05-07 17:31 | 44.95979 | 9.52860 | 23952 ft | 444 kts | 27° |
| 2026-05-07 17:32 | 44.98618 | 9.55077 | 24281 ft | 447 kts | 27° |
| 2026-05-07 17:32 | 45.01293 | 9.57328 | 24629 ft | 449 kts | 27° |
| 2026-05-07 17:32 | 45.03983 | 9.59591 | 24952 ft | 451 kts | 27° |
| 2026-05-07 17:32 | 45.05808 | 9.61127 | 25142 ft | 453 kts | 27° |
| 2026-05-07 17:33 | 45.09411 | 9.64164 | 25508 ft | 457 kts | 27° |
| 2026-05-07 17:33 | 45.12148 | 9.66472 | 25815 ft | 460 kts | 26° |
| 2026-05-07 17:33 | 45.14906 | 9.68806 | 26105 ft | 463 kts | 27° |
| 2026-05-07 17:33 | 45.17676 | 9.71156 | 26424 ft | 465 kts | 26° |
| 2026-05-07 17:34 | 45.20460 | 9.73521 | 26742 ft | 467 kts | 26° |
| 2026-05-07 17:34 | 45.23255 | 9.75899 | 27051 ft | 470 kts | 26° |
| 2026-05-07 17:34 | 45.26065 | 9.78293 | 27327 ft | 472 kts | 26° |
| 2026-05-07 17:34 | 45.28887 | 9.80702 | 27610 ft | 475 kts | 26° |
| 2026-05-07 17:35 | 45.31723 | 9.83126 | 27887 ft | 477 kts | 26° |
| 2026-05-07 17:35 | 45.34576 | 9.85562 | 28136 ft | 480 kts | 26° |
| 2026-05-07 17:35 | 45.37442 | 9.88012 | 28439 ft | 482 kts | 26° |
| 2026-05-07 17:35 | 45.40319 | 9.90479 | 28731 ft | 484 kts | 26° |
| 2026-05-07 17:36 | 45.43210 | 9.92955 | 29009 ft | 486 kts | 26° |
| 2026-05-07 17:36 | 45.46116 | 9.95445 | 29276 ft | 489 kts | 26° |
| 2026-05-07 17:36 | 45.49035 | 9.97949 | 29565 ft | 491 kts | 26° |
| 2026-05-07 17:36 | 45.51959 | 10.00470 | 29953 ft | 490 kts | 26° |
| 2026-05-07 17:37 | 45.54874 | 10.02990 | 30302 ft | 490 kts | 26° |
| 2026-05-07 17:37 | 45.57782 | 10.05506 | 30661 ft | 488 kts | 26° |
| 2026-05-07 17:37 | 45.60685 | 10.08018 | 30984 ft | 488 kts | 27° |
| 2026-05-07 17:37 | 45.63451 | 10.10883 | 31290 ft | 494 kts | 36° |
| 2026-05-07 17:38 | 45.65932 | 10.14316 | 31600 ft | 499 kts | 45° |
| 2026-05-07 17:38 | 45.68061 | 10.18249 | 31924 ft | 503 kts | 53° |
| 2026-05-07 17:38 | 45.70013 | 10.22401 | 32259 ft | 503 kts | 53° |
| 2026-05-07 17:38 | 45.71948 | 10.26494 | 32593 ft | 503 kts | 52° |
| 2026-05-07 17:39 | 45.73913 | 10.30636 | 32896 ft | 503 kts | 52° |
| 2026-05-07 17:39 | 45.75876 | 10.34773 | 33182 ft | 502 kts | 53° |
| 2026-05-07 17:39 | 45.77836 | 10.38911 | 33480 ft | 502 kts | 52° |
| 2026-05-07 17:39 | 45.79794 | 10.43054 | 33741 ft | 502 kts | 52° |
| 2026-05-07 17:40 | 45.81750 | 10.47200 | 33962 ft | 502 kts | 52° |
| 2026-05-07 17:40 | 45.83698 | 10.51341 | 34018 ft | 500 kts | 53° |
| 2026-05-07 17:40 | 45.87563 | 10.59599 | 34023 ft | 498 kts | 53° |
| 2026-05-07 17:41 | 45.91419 | 10.67850 | 34041 ft | 497 kts | 53° |
| 2026-05-07 17:41 | 45.95267 | 10.76102 | 34044 ft | 498 kts | 53° |
| 2026-05-07 17:42 | 45.99112 | 10.84367 | 34054 ft | 499 kts | 53° |
| 2026-05-07 17:42 | 46.02315 | 10.91274 | 34066 ft | 499 kts | 53° |
| 2026-05-07 17:43 | 46.06158 | 10.99587 | 34107 ft | 499 kts | 53° |
| 2026-05-07 17:43 | 46.10000 | 11.07914 | 34095 ft | 499 kts | 53° |
| 2026-05-07 17:44 | 46.13832 | 11.16248 | 34094 ft | 499 kts | 53° |
| 2026-05-07 17:44 | 46.17656 | 11.24595 | 34066 ft | 499 kts | 53° |
| 2026-05-07 17:45 | 46.21479 | 11.32958 | 34024 ft | 500 kts | 53° |
| 2026-05-07 17:45 | 46.25301 | 11.41346 | 34006 ft | 500 kts | 53° |
| 2026-05-07 17:46 | 46.29115 | 11.49750 | 34014 ft | 500 kts | 53° |
| 2026-05-07 17:46 | 46.32930 | 11.58170 | 34009 ft | 500 kts | 53° |
| 2026-05-07 17:47 | 46.36740 | 11.66596 | 34007 ft | 501 kts | 53° |
| 2026-05-07 17:47 | 46.40321 | 11.75246 | 34030 ft | 501 kts | 60° |
| 2026-05-07 17:48 | 46.43824 | 11.83926 | 34023 ft | 496 kts | 50° |
| 2026-05-07 17:48 | 46.47906 | 11.91976 | 34015 ft | 495 kts | 50° |
| 2026-05-07 17:49 | 46.51974 | 12.00031 | 34016 ft | 495 kts | 50° |
| 2026-05-07 17:49 | 46.56027 | 12.08100 | 34020 ft | 494 kts | 51° |
| 2026-05-07 17:50 | 46.60064 | 12.16177 | 34023 ft | 494 kts | 51° |
| 2026-05-07 17:50 | 46.64090 | 12.24257 | 34077 ft | 493 kts | 51° |
| 2026-05-07 17:51 | 46.68112 | 12.32348 | 34071 ft | 494 kts | 51° |
| 2026-05-07 17:51 | 46.72133 | 12.40460 | 34077 ft | 494 kts | 51° |
| 2026-05-07 17:52 | 46.76150 | 12.48576 | 34065 ft | 494 kts | 51° |
| 2026-05-07 17:52 | 46.80159 | 12.56711 | 34043 ft | 493 kts | 51° |
| 2026-05-07 17:53 | 46.84165 | 12.64846 | 34037 ft | 494 kts | 51° |
| 2026-05-07 17:53 | 46.88162 | 12.73006 | 34056 ft | 494 kts | 51° |
| 2026-05-07 17:54 | 46.92152 | 12.81170 | 34063 ft | 493 kts | 52° |
| 2026-05-07 17:54 | 46.96134 | 12.89319 | 34043 ft | 491 kts | 52° |
| 2026-05-07 17:55 | 47.00099 | 12.97485 | 34047 ft | 492 kts | 52° |
| 2026-05-07 17:55 | 47.04055 | 13.05661 | 34046 ft | 491 kts | 52° |
| 2026-05-07 17:56 | 47.07998 | 13.13835 | 34071 ft | 490 kts | 52° |
| 2026-05-07 17:56 | 47.11933 | 13.22000 | 34066 ft | 489 kts | 52° |
| 2026-05-07 17:57 | 47.15191 | 13.28776 | 34061 ft | 488 kts | 52° |
| 2026-05-07 17:57 | 47.19767 | 13.38315 | 34043 ft | 488 kts | 52° |
| 2026-05-07 17:58 | 47.23675 | 13.46498 | 34066 ft | 489 kts | 53° |
| 2026-05-07 17:58 | 47.27570 | 13.54682 | 34068 ft | 488 kts | 53° |
| 2026-05-07 17:59 | 47.31452 | 13.62878 | 34058 ft | 487 kts | 53° |
| 2026-05-07 17:59 | 47.35327 | 13.71082 | 34064 ft | 487 kts | 53° |
| 2026-05-07 18:00 | 47.39202 | 13.79279 | 34086 ft | 487 kts | 53° |
| 2026-05-07 18:00 | 47.43042 | 13.87446 | 34063 ft | 487 kts | 54° |
| 2026-05-07 18:01 | 47.46901 | 13.95662 | 34059 ft | 487 kts | 54° |
| 2026-05-07 18:01 | 47.50761 | 14.03906 | 34067 ft | 487 kts | 54° |
| 2026-05-07 18:02 | 47.56527 | 14.16305 | 34089 ft | 488 kts | 54° |
| 2026-05-07 18:03 | 47.60372 | 14.24579 | 34090 ft | 488 kts | 54° |
| 2026-05-07 18:03 | 47.64202 | 14.32863 | 34082 ft | 487 kts | 54° |
| 2026-05-07 18:04 | 47.68022 | 14.41158 | 34074 ft | 487 kts | 54° |
| 2026-05-07 18:04 | 47.71846 | 14.49447 | 34053 ft | 486 kts | 54° |
| 2026-05-07 18:05 | 47.75663 | 14.57747 | 34066 ft | 487 kts | 55° |
| 2026-05-07 18:05 | 47.79460 | 14.66070 | 34054 ft | 485 kts | 56° |
| 2026-05-07 18:06 | 47.83239 | 14.74396 | 34058 ft | 485 kts | 56° |
| 2026-05-07 18:06 | 47.87017 | 14.82730 | 34049 ft | 485 kts | 56° |
| 2026-05-07 18:07 | 47.90800 | 14.91055 | 34042 ft | 485 kts | 56° |
| 2026-05-07 18:07 | 47.94571 | 14.99393 | 34008 ft | 485 kts | 56° |
| 2026-05-07 18:08 | 47.98335 | 15.07763 | 34014 ft | 486 kts | 56° |
| 2026-05-07 18:08 | 48.02094 | 15.16148 | 34016 ft | 486 kts | 56° |
| 2026-05-07 18:09 | 48.05858 | 15.24545 | 34023 ft | 487 kts | 56° |
| 2026-05-07 18:09 | 48.09614 | 15.32960 | 34044 ft | 486 kts | 57° |
| 2026-05-07 18:10 | 48.13334 | 15.41326 | 34036 ft | 486 kts | 57° |
| 2026-05-07 18:10 | 48.17068 | 15.49745 | 34034 ft | 485 kts | 57° |
| 2026-05-07 18:11 | 48.20792 | 15.58177 | 33997 ft | 485 kts | 57° |
| 2026-05-07 18:11 | 48.24517 | 15.66635 | 34002 ft | 487 kts | 57° |
| 2026-05-07 18:12 | 48.28245 | 15.75133 | 33984 ft | 488 kts | 57° |
| 2026-05-07 18:12 | 48.31977 | 15.83652 | 33987 ft | 489 kts | 57° |
| 2026-05-07 18:13 | 48.35715 | 15.92193 | 33990 ft | 489 kts | 57° |
| 2026-05-07 18:13 | 48.39437 | 16.00756 | 33993 ft | 489 kts | 57° |
| 2026-05-07 18:14 | 48.43152 | 16.09337 | 34003 ft | 489 kts | 58° |
| 2026-05-07 18:14 | 48.46859 | 16.17924 | 33962 ft | 489 kts | 57° |
| 2026-05-07 18:15 | 48.50559 | 16.26520 | 33960 ft | 489 kts | 57° |
| 2026-05-07 18:15 | 48.54269 | 16.35140 | 33962 ft | 490 kts | 57° |
| 2026-05-07 18:16 | 48.57974 | 16.43775 | 33984 ft | 490 kts | 58° |
| 2026-05-07 18:16 | 48.61660 | 16.52411 | 33994 ft | 488 kts | 58° |
| 2026-05-07 18:17 | 48.65328 | 16.61043 | 34003 ft | 487 kts | 58° |
| 2026-05-07 18:17 | 48.68981 | 16.69667 | 33992 ft | 486 kts | 58° |
| 2026-05-07 18:18 | 48.72606 | 16.78233 | 33941 ft | 486 kts | 56° |
| 2026-05-07 18:18 | 48.76747 | 16.86335 | 33940 ft | 487 kts | 53° |
| 2026-05-07 18:19 | 48.80948 | 16.94402 | 33955 ft | 487 kts | 53° |
| 2026-05-07 18:19 | 48.85137 | 17.02498 | 33960 ft | 487 kts | 53° |
| 2026-05-07 18:20 | 48.89317 | 17.10606 | 33961 ft | 488 kts | 53° |
| 2026-05-07 18:20 | 48.93493 | 17.18718 | 33969 ft | 487 kts | 54° |
| 2026-05-07 18:21 | 48.97664 | 17.26845 | 33977 ft | 487 kts | 54° |
| 2026-05-07 18:21 | 49.01822 | 17.34978 | 33976 ft | 486 kts | 54° |
| 2026-05-07 18:22 | 49.05970 | 17.43124 | 33975 ft | 486 kts | 54° |
| 2026-05-07 18:22 | 49.10083 | 17.51215 | 33980 ft | 486 kts | 54° |
| 2026-05-07 18:23 | 49.14213 | 17.59378 | 33976 ft | 486 kts | 54° |
| 2026-05-07 18:23 | 49.18342 | 17.67540 | 33971 ft | 485 kts | 55° |
| 2026-05-07 18:24 | 49.22463 | 17.75716 | 33971 ft | 485 kts | 55° |
| 2026-05-07 18:24 | 49.26573 | 17.83917 | 33976 ft | 485 kts | 56° |
| 2026-05-07 18:25 | 49.30682 | 17.92118 | 33981 ft | 486 kts | 56° |
| 2026-05-07 18:25 | 49.34795 | 18.00340 | 33973 ft | 486 kts | 56° |
| 2026-05-07 18:26 | 49.38891 | 18.08581 | 33974 ft | 486 kts | 56° |
| 2026-05-07 18:26 | 49.42981 | 18.16841 | 33935 ft | 486 kts | 56° |
| 2026-05-07 18:27 | 49.47080 | 18.25150 | 33943 ft | 488 kts | 57° |
| 2026-05-07 18:27 | 49.48936 | 18.28911 | 33950 ft | 489 kts | 57° |